Time;durP1;ratioP1;P1;durP2;ratioP2;P2;SDS_P1;SDS_P2;PMS_P1;PMS_P2;Temp;Humidity;BMP_temperature;BMP_pressure;BME280_temperature;BME280_humidity;BME280_pressure;Samples;Min_cycle;Max_cycle;Signal;HPM_P1;HPM_P2
2021/01/10 00:02:24;;;;;;;65.97;50.72;;;0.10;91.80;;;;;;5047006;28;20028;-75
2021/01/10 00:04:50;;;;;;;72.75;53.60;;;0.00;91.80;;;;;;5052971;28;20040;-75
2021/01/10 00:07:16;;;;;;;66.70;51.47;;;0.00;91.80;;;;;;5048067;28;20033;-74
2021/01/10 00:09:41;;;;;;;66.43;51.00;;;0.00;91.90;;;;;;5048883;28;20059;-74
2021/01/10 00:12:07;;;;;;;68.20;51.60;;;0.00;91.90;;;;;;5046520;28;20033;-74
2021/01/10 00:14:33;;;;;;;72.75;52.72;;;0.00;91.90;;;;;;5048633;28;20426;-75
2021/01/10 00:16:58;;;;;;;65.18;50.85;;;-3276.70;91.90;;;;;;5047904;28;20040;-74
2021/01/10 00:19:24;;;;;;;66.10;51.08;;;-3276.70;92.00;;;;;;5051267;28;20446;-74
2021/01/10 00:21:49;;;;;;;66.15;49.35;;;-3276.60;92.00;;;;;;5046800;28;20387;-75
2021/01/10 00:24:15;;;;;;;64.30;50.67;;;-3276.60;92.00;;;;;;5050082;28;20062;-75
2021/01/10 00:26:41;;;;;;;68.18;52.33;;;-3276.60;92.10;;;;;;5045344;28;20388;-75
2021/01/10 00:29:08;;;;;;;61.85;49.03;;;-3276.60;92.10;;;;;;5047462;28;20055;-75
2021/01/10 00:31:34;;;;;;;70.97;53.40;;;-3276.50;92.10;;;;;;5041715;28;20040;-75
2021/01/10 00:34:02;;;;;;;66.50;50.95;;;-3276.50;92.10;;;;;;5050494;28;20047;-75
2021/01/10 00:36:38;;;;;;;67.32;52.50;;;-3276.50;92.20;;;;;;5048064;28;20040;-75
2021/01/10 00:39:05;;;;;;;70.13;51.97;;;-3276.50;92.10;;;;;;5056832;28;20037;-74
2021/01/10 00:41:38;;;;;;;66.25;50.00;;;-3276.50;92.30;;;;;;5040240;28;20468;-75
2021/01/10 00:44:05;;;;;;;66.55;50.78;;;-3276.50;92.20;;;;;;5040166;28;20033;-75
2021/01/10 00:46:32;;;;;;;64.88;50.05;;;-3276.50;92.20;;;;;;5053083;28;20041;-75
2021/01/10 00:48:58;;;;;;;66.18;52.30;;;-3276.50;92.20;;;;;;5048515;28;20086;-74
2021/01/10 00:51:23;;;;;;;64.65;48.28;;;-3276.50;92.30;;;;;;5048427;28;20037;-76
2021/01/10 00:53:50;;;;;;;67.22;49.58;;;-3276.40;92.30;;;;;;5053059;28;20388;-75
2021/01/10 00:56:16;;;;;;;62.20;47.05;;;-3276.40;92.30;;;;;;5041482;28;20432;-74
2021/01/10 00:58:42;;;;;;;70.00;50.83;;;-3276.40;92.30;;;;;;5045710;28;20120;-75
2021/01/10 01:01:07;;;;;;;64.70;50.38;;;-3276.40;92.40;;;;;;5045729;28;20123;-75
2021/01/10 01:03:33;;;;;;;64.07;49.10;;;-3276.30;92.40;;;;;;5045311;28;20029;-74
2021/01/10 01:05:59;;;;;;;68.88;50.45;;;-3276.30;92.40;;;;;;5051633;28;20045;-76
2021/01/10 01:08:24;;;;;;;62.40;48.75;;;-3276.30;92.40;;;;;;5042080;28;20060;-74
2021/01/10 01:10:50;;;;;;;64.95;48.10;;;-3276.30;92.50;;;;;;5046944;28;20560;-75
2021/01/10 01:13:16;;;;;;;69.07;50.67;;;-3276.30;92.50;;;;;;5046482;28;20072;-74
2021/01/10 01:15:42;;;;;;;65.43;47.80;;;-3276.20;92.60;;;;;;5048214;28;20037;-75
2021/01/10 01:18:09;;;;;;;68.45;50.25;;;-3276.20;92.60;;;;;;5043816;28;20029;-75
2021/01/10 01:20:35;;;;;;;68.70;48.53;;;-3276.20;92.60;;;;;;5053270;28;20028;-75
2021/01/10 01:23:04;;;;;;;62.97;47.15;;;-3276.20;92.60;;;;;;5045181;28;20396;-76
2021/01/10 01:25:29;;;;;;;60.95;47.40;;;-3276.10;92.60;;;;;;5051747;28;20041;-75
2021/01/10 01:27:55;;;;;;;63.72;48.40;;;-3276.10;92.60;;;;;;5049426;28;20377;-76
2021/01/10 01:30:21;;;;;;;62.42;46.63;;;-3276.10;92.60;;;;;;5053796;28;20528;-75
2021/01/10 01:32:47;;;;;;;64.95;48.00;;;-3276.10;92.70;;;;;;5055523;28;20040;-75
2021/01/10 01:35:13;;;;;;;60.60;46.13;;;-3276.00;92.70;;;;;;5052615;28;21098;-75
2021/01/10 01:37:41;;;;;;;62.90;46.83;;;-3276.00;92.70;;;;;;5048465;28;20111;-74
2021/01/10 01:40:09;;;;;;;64.18;45.40;;;-3276.00;92.80;;;;;;5054396;28;20033;-75
2021/01/10 01:42:35;;;;;;;63.22;48.70;;;-3276.00;92.80;;;;;;5052403;28;20036;-75
2021/01/10 01:45:01;;;;;;;69.97;53.55;;;-3276.00;92.70;;;;;;5056277;28;20033;-75
2021/01/10 01:47:27;;;;;;;71.90;52.75;;;-3276.00;92.70;;;;;;5049980;28;20059;-75
2021/01/10 01:49:53;;;;;;;68.68;52.28;;;-3275.90;92.80;;;;;;5049226;28;20044;-74
2021/01/10 01:52:19;;;;;;;59.83;45.30;;;-3275.90;92.70;;;;;;5050372;28;20033;-75
2021/01/10 01:54:45;;;;;;;57.88;43.60;;;-3275.90;92.80;;;;;;5048254;28;20049;-75
2021/01/10 01:57:11;;;;;;;55.42;42.45;;;-3275.90;92.80;;;;;;5049400;28;20128;-75
2021/01/10 01:59:37;;;;;;;60.33;43.53;;;-3275.90;92.80;;;;;;5053797;28;20373;-75
2021/01/10 02:02:06;;;;;;;55.85;43.03;;;-3275.80;92.80;;;;;;5053302;28;20044;-75
2021/01/10 02:04:41;;;;;;;58.33;44.65;;;-3275.80;92.80;;;;;;5044140;28;20037;-75
2021/01/10 02:07:34;;;;;;;58.55;44.92;;;-3275.80;92.80;;;;;;5054232;28;20040;-75
2021/01/10 02:10:07;;;;;;;57.85;43.28;;;-3275.80;92.80;;;;;;5049586;28;20086;-75
2021/01/10 02:12:37;;;;;;;56.70;43.20;;;-3275.70;92.70;;;;;;5056320;28;20037;-76
2021/01/10 02:15:13;;;;;;;57.95;43.75;;;-3275.80;92.70;;;;;;5048601;28;20060;-75
2021/01/10 02:17:40;;;;;;;54.88;39.10;;;-3275.80;92.70;;;;;;5048132;28;20039;-75
2021/01/10 02:20:12;;;;;;;53.88;40.90;;;-3275.70;92.70;;;;;;5069610;28;20404;-75
2021/01/10 02:22:52;;;;;;;51.42;39.38;;;-3275.70;92.70;;;;;;5040496;28;20040;-75
2021/01/10 02:25:18;;;;;;;50.47;39.10;;;-3275.70;92.70;;;;;;5046159;28;20025;-75
2021/01/10 02:27:44;;;;;;;51.60;39.78;;;-3275.70;92.70;;;;;;5049328;28;20041;-75
2021/01/10 02:30:12;;;;;;;52.28;40.83;;;-3275.70;92.70;;;;;;5048008;28;20040;-75
2021/01/10 02:32:42;;;;;;;51.03;38.42;;;-3275.70;92.70;;;;;;5051316;28;20036;-74
2021/01/10 02:35:10;;;;;;;54.05;39.90;;;-3275.80;92.70;;;;;;5049670;28;20110;-74
2021/01/10 02:38:20;;;;;;;51.17;39.42;;;-3275.70;92.80;;;;;;5047034;28;20048;-74
2021/01/10 02:40:56;;;;;;;50.95;38.75;;;-3275.80;92.80;;;;;;5038315;28;20132;-75
2021/01/10 02:43:25;;;;;;;52.80;39.88;;;-3275.80;92.80;;;;;;5051808;28;20082;-74
2021/01/10 02:45:55;;;;;;;54.35;40.08;;;-3275.80;92.70;;;;;;5060232;28;20080;-74
2021/01/10 02:48:22;;;;;;;52.85;39.05;;;-3275.80;92.70;;;;;;5044102;28;20036;-74
2021/01/10 02:50:47;;;;;;;55.33;39.83;;;-3275.80;92.70;;;;;;5049925;28;20064;-74
2021/01/10 02:53:13;;;;;;;57.25;39.58;;;-3275.90;92.70;;;;;;5053649;28;20052;-74
2021/01/10 02:55:39;;;;;;;55.50;38.88;;;-3275.90;92.60;;;;;;5043824;28;20047;-74
2021/01/10 02:58:12;;;;;;;51.92;38.75;;;-3276.00;92.50;;;;;;5047276;28;20479;-75
2021/01/10 03:00:39;;;;;;;54.95;40.13;;;-3276.00;92.40;;;;;;5048044;28;20033;-74
2021/01/10 03:03:06;;;;;;;57.10;40.97;;;-3276.00;92.30;;;;;;5048619;28;20029;-75
2021/01/10 03:05:33;;;;;;;54.42;40.70;;;-3276.00;92.20;;;;;;5057835;28;20120;-74
2021/01/10 03:07:59;;;;;;;56.55;40.45;;;-3276.00;92.30;;;;;;5051916;28;20102;-75
2021/01/10 03:10:25;;;;;;;56.22;39.55;;;-3276.00;92.20;;;;;;5049593;28;20079;-75
2021/01/10 03:12:51;;;;;;;57.65;40.67;;;-3276.00;92.10;;;;;;5049005;28;20426;-75
2021/01/10 03:15:17;;;;;;;58.40;40.28;;;-3276.00;92.10;;;;;;5048175;28;20475;-74
2021/01/10 03:17:48;;;;;;;60.55;42.75;;;-3276.00;92.10;;;;;;5052768;28;20028;-75
2021/01/10 03:20:16;;;;;;;56.85;42.53;;;-3276.00;92.20;;;;;;5053661;28;20041;-75
2021/01/10 03:22:44;;;;;;;61.58;41.85;;;-3276.00;92.20;;;;;;5050314;28;20063;-75
2021/01/10 03:25:11;;;;;;;59.38;41.22;;;-3276.00;92.20;;;;;;5053183;28;20041;-75
2021/01/10 03:27:36;;;;;;;59.05;42.33;;;-3276.10;92.20;;;;;;5047037;28;20025;-76
2021/01/10 03:30:08;;;;;;;67.30;44.90;;;-3276.10;92.10;;;;;;5055513;28;20021;-75
2021/01/10 03:32:34;;;;;;;64.50;42.33;;;-3276.10;92.10;;;;;;5049344;28;20060;-75
2021/01/10 03:35:00;;;;;;;64.57;43.33;;;-3276.10;92.10;;;;;;5058236;28;20044;-74
2021/01/10 03:37:25;;;;;;;58.83;41.92;;;-3276.20;92.10;;;;;;5049169;28;20029;-74
2021/01/10 03:39:52;;;;;;;63.45;44.50;;;-3276.20;92.10;;;;;;5050403;28;20047;-75
2021/01/10 03:42:17;;;;;;;64.38;43.83;;;-3276.20;92.10;;;;;;5046696;28;20094;-75
2021/01/10 03:44:43;;;;;;;63.38;44.42;;;-3276.20;92.10;;;;;;5055402;28;20434;-75
2021/01/10 03:47:09;;;;;;;67.07;43.20;;;-3276.20;92.10;;;;;;5055130;28;20041;-75
2021/01/10 03:49:34;;;;;;;71.38;46.65;;;-3276.20;92.20;;;;;;5052445;28;20029;-75
2021/01/10 03:52:00;;;;;;;65.93;43.42;;;-3276.20;92.20;;;;;;5040519;28;20044;-74
2021/01/10 03:54:26;;;;;;;67.18;45.25;;;-3276.30;92.20;;;;;;5046043;28;20132;-74
2021/01/10 03:56:51;;;;;;;64.47;42.95;;;-3276.30;92.10;;;;;;5046496;28;20472;-75
2021/01/10 03:59:17;;;;;;;74.53;47.20;;;-3276.30;92.10;;;;;;5052704;28;20028;-74
2021/01/10 04:01:43;;;;;;;68.80;44.88;;;-3276.30;92.20;;;;;;5047453;28;20029;-75
2021/01/10 04:04:08;;;;;;;73.32;46.25;;;-3276.30;92.20;;;;;;5050719;28;20124;-75
2021/01/10 04:06:34;;;;;;;66.45;45.78;;;-3276.40;92.20;;;;;;5053380;28;20091;-73
2021/01/10 04:09:00;;;;;;;67.45;45.47;;;-3276.40;92.20;;;;;;5046670;28;20392;-74
2021/01/10 04:11:25;;;;;;;67.05;43.10;;;-3276.40;92.10;;;;;;5048698;28;20032;-74
2021/01/10 04:13:51;;;;;;;61.92;44.10;;;-3276.40;92.10;;;;;;5057822;28;20037;-74
2021/01/10 04:16:17;;;;;;;72.82;48.22;;;-3276.40;92.10;;;;;;5048627;28;20033;-74
2021/01/10 04:18:43;;;;;;;66.75;44.92;;;-3276.40;92.00;;;;;;5048240;28;20037;-73
2021/01/10 04:21:08;;;;;;;70.60;47.42;;;-3276.30;92.10;;;;;;5047016;28;20032;-74
2021/01/10 04:23:35;;;;;;;68.72;46.20;;;-3276.30;92.10;;;;;;5047787;28;20024;-75
2021/01/10 04:26:01;;;;;;;72.35;47.67;;;-3276.20;92.10;;;;;;5045919;28;20044;-75
2021/01/10 04:28:27;;;;;;;69.45;45.50;;;-3276.10;92.20;;;;;;5064348;28;20482;-74
2021/01/10 04:30:53;;;;;;;70.82;48.60;;;-3276.10;92.30;;;;;;5047677;28;20040;-74
2021/01/10 04:33:18;;;;;;;71.97;45.10;;;-3276.00;92.30;;;;;;5053322;28;20575;-73
2021/01/10 04:35:44;;;;;;;65.38;44.67;;;-3276.00;92.40;;;;;;5049661;28;20029;-74
2021/01/10 04:38:10;;;;;;;71.78;47.17;;;-3276.00;92.40;;;;;;5046592;28;20024;-75
2021/01/10 04:40:35;;;;;;;67.85;46.22;;;-3276.00;92.40;;;;;;5049765;28;20029;-74
2021/01/10 04:43:01;;;;;;;65.35;45.28;;;-3275.90;92.50;;;;;;5046097;28;20040;-74
2021/01/10 04:45:27;;;;;;;66.85;45.72;;;-3275.90;92.50;;;;;;5048069;28;20036;-73
2021/01/10 04:47:53;;;;;;;71.43;48.08;;;-3275.90;92.60;;;;;;5039797;28;20048;-74
2021/01/10 04:50:21;;;;;;;65.82;46.22;;;-3275.90;92.60;;;;;;5052019;28;20040;-75
2021/01/10 04:52:52;;;;;;;63.80;44.72;;;-3275.90;92.60;;;;;;5054050;28;20029;-74
2021/01/10 04:55:20;;;;;;;66.53;44.90;;;-3275.80;92.70;;;;;;5051334;28;20045;-74
2021/01/10 04:57:49;;;;;;;64.72;45.35;;;-3275.80;92.70;;;;;;5052047;28;20519;-75
2021/01/10 05:00:16;;;;;;;69.50;47.28;;;-3275.80;92.70;;;;;;5049820;28;20079;-74
2021/01/10 05:02:47;;;;;;;70.85;46.78;;;-3275.80;92.80;;;;;;5047837;28;20061;-75
2021/01/10 05:05:14;;;;;;;67.20;46.65;;;-3275.80;92.80;;;;;;5052034;28;20040;-75
2021/01/10 05:07:43;;;;;;;66.32;45.95;;;-3275.80;92.90;;;;;;5050171;28;20802;-75
2021/01/10 05:10:09;;;;;;;67.45;47.15;;;-3275.80;92.90;;;;;;5052718;28;20420;-76
2021/01/10 05:12:35;;;;;;;71.70;50.15;;;-3275.80;93.00;;;;;;5049839;28;20041;-76
2021/01/10 05:15:01;;;;;;;67.13;45.60;;;-3275.90;93.00;;;;;;5048606;28;20040;-75
2021/01/10 05:17:26;;;;;;;69.88;47.53;;;-3275.90;93.00;;;;;;5050057;28;20095;-75
2021/01/10 05:19:52;;;;;;;69.85;49.15;;;-3275.90;93.00;;;;;;5054564;28;20045;-75
2021/01/10 05:22:20;;;;;;;68.38;48.42;;;-3275.90;93.00;;;;;;5053547;28;20353;-76
2021/01/10 05:24:48;;;;;;;72.47;46.83;;;-3275.90;92.90;;;;;;5051234;28;20470;-76
2021/01/10 05:27:13;;;;;;;62.40;44.30;;;-3275.80;92.90;;;;;;5047983;28;20059;-75
2021/01/10 05:29:43;;;;;;;66.50;45.60;;;-3275.90;93.00;;;;;;5047670;28;20060;-75
2021/01/10 05:32:10;;;;;;;66.05;45.88;;;-3275.90;93.00;;;;;;5052217;28;20196;-75
2021/01/10 05:34:36;;;;;;;72.13;46.40;;;-3275.80;93.00;;;;;;5056585;28;20032;-75
2021/01/10 05:37:15;;;;;;;71.18;48.65;;;-3275.80;93.00;;;;;;5050186;28;20606;-74
2021/01/10 05:39:46;;;;;;;62.75;43.78;;;-3275.80;93.00;;;;;;5049343;28;20423;-74
2021/01/10 05:42:13;;;;;;;66.22;46.03;;;-3275.80;93.00;;;;;;5047723;28;20504;-75
2021/01/10 05:44:39;;;;;;;64.80;47.33;;;-3275.80;93.10;;;;;;5048982;28;20123;-74
2021/01/10 05:47:07;;;;;;;66.70;45.22;;;-3275.80;93.10;;;;;;5050386;28;20122;-75
2021/01/10 05:49:32;;;;;;;64.78;44.78;;;-3275.90;93.00;;;;;;5052791;28;20074;-75
2021/01/10 05:52:09;;;;;;;66.20;45.95;;;-3275.90;93.00;;;;;;5052669;28;20037;-75
2021/01/10 05:54:38;;;;;;;67.30;44.67;;;-3275.90;93.00;;;;;;5049995;28;20049;-75
2021/01/10 05:57:24;;;;;;;61.13;43.33;;;-3275.90;93.00;;;;;;5050696;28;20493;-75
2021/01/10 05:59:52;;;;;;;62.83;45.45;;;-3275.80;92.90;;;;;;5052552;28;20404;-75
2021/01/10 06:02:29;;;;;;;69.95;48.50;;;-3275.80;92.90;;;;;;5050193;28;20029;-75
2021/01/10 06:05:11;;;;;;;64.63;45.33;;;-3275.80;92.90;;;;;;5045929;28;20032;-75
2021/01/10 06:07:36;;;;;;;63.47;44.97;;;-3275.80;93.00;;;;;;5059704;28;20090;-75
2021/01/10 06:10:04;;;;;;;64.22;45.17;;;-3275.80;92.90;;;;;;5060023;28;20028;-75
2021/01/10 06:12:29;;;;;;;63.85;45.20;;;-3275.80;92.90;;;;;;5045840;28;20025;-74
2021/01/10 06:15:17;;;;;;;64.63;44.22;;;-3275.70;92.90;;;;;;5057915;28;20090;-75
2021/01/10 06:17:48;;;;;;;64.28;45.08;;;-3275.70;93.00;;;;;;5048318;28;20124;-75
2021/01/10 06:20:25;;;;;;;64.07;46.03;;;-3275.70;92.90;;;;;;5051690;28;20049;-75
2021/01/10 06:22:53;;;;;;;61.72;42.67;;;-3275.70;92.90;;;;;;5048257;28;20036;-76
2021/01/10 06:25:32;;;;;;;62.47;44.55;;;-3275.70;92.90;;;;;;5049568;28;20029;-75
2021/01/10 06:28:16;;;;;;;66.57;46.55;;;-3275.60;92.90;;;;;;5048640;28;20116;-75
2021/01/10 06:30:50;;;;;;;69.32;49.70;;;-3275.60;92.80;;;;;;5048734;28;20025;-75
2021/01/10 06:33:20;;;;;;;73.00;50.60;;;-3275.60;92.80;;;;;;5052299;28;20534;-75
2021/01/10 06:35:51;;;;;;;74.70;51.95;;;-3275.50;92.90;;;;;;5053158;28;20487;-76
2021/01/10 06:38:22;;;;;;;76.10;55.15;;;-3275.50;92.90;;;;;;5049146;28;20059;-75
2021/01/10 06:41:19;;;;;;;71.22;51.30;;;-3275.50;92.90;;;;;;5051549;28;20087;-75
2021/01/10 06:43:55;;;;;;;63.53;44.85;;;-3275.50;92.90;;;;;;5047761;28;20032;-76
2021/01/10 06:46:21;;;;;;;65.97;46.88;;;-3275.50;93.00;;;;;;5046904;28;20045;-75
2021/01/10 06:48:48;;;;;;;70.13;47.72;;;-3275.50;93.00;;;;;;5050098;28;20033;-76
2021/01/10 06:51:15;;;;;;;62.22;46.45;;;-3275.50;93.00;;;;;;5050725;28;20494;-75
2021/01/10 06:53:41;;;;;;;65.22;46.70;;;-3275.50;93.10;;;;;;5049023;28;20104;-76
2021/01/10 06:56:07;;;;;;;61.72;43.90;;;-3275.50;93.10;;;;;;5048046;28;20367;-75
2021/01/10 06:58:33;;;;;;;65.50;45.05;;;-3275.50;93.10;;;;;;5053269;28;20045;-75
2021/01/10 07:00:59;;;;;;;66.13;46.55;;;-3275.40;93.10;;;;;;5048460;28;20064;-75
2021/01/10 07:03:26;;;;;;;60.53;44.20;;;-3275.40;93.20;;;;;;5052279;28;20115;-74
2021/01/10 07:06:05;;;;;;;58.92;41.90;;;-3275.40;93.20;;;;;;5057248;28;20407;-76
2021/01/10 07:08:34;;;;;;;60.92;43.67;;;-3275.40;93.20;;;;;;5050081;28;20048;-76
2021/01/10 07:11:21;;;;;;;60.55;42.85;;;-3275.40;93.20;;;;;;5052458;28;20044;-75
2021/01/10 07:14:04;;;;;;;62.97;42.50;;;-3275.40;93.20;;;;;;5059049;28;20403;-76
2021/01/10 07:16:30;;;;;;;63.90;45.05;;;-3275.40;93.30;;;;;;5039718;28;20025;-75
2021/01/10 07:18:57;;;;;;;65.85;46.75;;;-3275.40;93.30;;;;;;5047906;28;20048;-76
2021/01/10 07:21:35;;;;;;;64.57;46.35;;;-3275.40;93.30;;;;;;5049772;28;20036;-75
2021/01/10 07:24:13;;;;;;;63.33;43.83;;;-3275.40;93.30;;;;;;5053169;28;20077;-76
2021/01/10 07:26:41;;;;;;;63.40;44.42;;;-3275.30;93.40;;;;;;5048419;28;20041;-75
2021/01/10 07:29:25;;;;;;;61.38;44.08;;;-3275.30;93.40;;;;;;5048622;28;20061;-76
2021/01/10 07:32:11;;;;;;;60.00;43.28;;;-3275.40;93.40;;;;;;5046052;28;20059;-75
2021/01/10 07:34:45;;;;;;;65.32;43.80;;;-3275.30;93.40;;;;;;5051849;28;20025;-75
2021/01/10 07:37:33;;;;;;;60.75;44.35;;;-3275.30;93.40;;;;;;5043935;28;20535;-76
2021/01/10 07:40:01;;;;;;;63.90;45.20;;;-3275.30;93.30;;;;;;5051065;28;20110;-75
2021/01/10 07:42:28;;;;;;;68.60;46.85;;;-3275.30;93.30;;;;;;5045208;28;20068;-75
2021/01/10 07:45:04;;;;;;;62.60;44.67;;;-3275.20;93.30;;;;;;5046694;28;20036;-76
2021/01/10 07:47:29;;;;;;;58.20;43.15;;;-3275.20;93.30;;;;;;5045923;28;20036;-75
2021/01/10 07:49:56;;;;;;;61.53;44.25;;;-3275.20;93.30;;;;;;5049089;28;20462;-76
2021/01/10 07:52:45;;;;;;;71.43;48.78;;;-3275.20;93.30;;;;;;5046220;28;20192;-76
2021/01/10 07:55:17;;;;;;;72.30;47.75;;;-3275.20;93.30;;;;;;5046066;28;20049;-76
2021/01/10 07:57:47;;;;;;;68.53;48.58;;;-3275.10;93.30;;;;;;5051020;28;20112;-75
2021/01/10 08:00:16;;;;;;;67.53;48.53;;;-3275.10;93.40;;;;;;5048377;28;20357;-74
2021/01/10 08:02:46;;;;;;;70.43;50.47;;;-3275.20;93.30;;;;;;5051185;28;20032;-75
2021/01/10 08:05:33;;;;;;;72.45;51.90;;;-3275.10;93.30;;;;;;5048981;28;20029;-75
2021/01/10 08:08:02;;;;;;;74.60;50.13;;;-3275.20;93.30;;;;;;5036532;28;20047;-76
2021/01/10 08:10:48;;;;;;;72.22;48.90;;;-3275.20;93.30;;;;;;5046568;28;20457;-76
2021/01/10 08:13:33;;;;;;;71.28;50.95;;;-3275.30;93.40;;;;;;5047559;28;20039;-75
2021/01/10 08:16:03;;;;;;;70.63;50.20;;;-3275.20;93.30;;;;;;5042866;28;20254;-75
2021/01/10 08:18:36;;;;;;;79.32;53.58;;;-3275.30;93.30;;;;;;5048210;28;20080;-75
2021/01/10 08:21:04;;;;;;;69.50;51.88;;;-3275.30;93.30;;;;;;5048792;28;20048;-75
2021/01/10 08:23:31;;;;;;;77.88;54.47;;;-3275.30;93.30;;;;;;5046441;28;20036;-75
2021/01/10 08:26:08;;;;;;;72.30;52.97;;;-3275.30;93.30;;;;;;5047492;28;20021;-75
2021/01/10 08:28:41;;;;;;;73.22;50.13;;;-3275.40;93.30;;;;;;5046299;28;20487;-75
2021/01/10 08:31:10;;;;;;;66.82;47.92;;;-3275.40;93.30;;;;;;5038559;28;20084;-75
2021/01/10 08:33:36;;;;;;;66.00;47.97;;;-3275.40;93.30;;;;;;5047981;28;20057;-75
2021/01/10 08:36:18;;;;;;;64.32;47.53;;;-3275.50;93.30;;;;;;5045096;28;20060;-75
2021/01/10 08:38:50;;;;;;;65.25;47.58;;;-3275.50;93.30;;;;;;5044612;28;20044;-75
2021/01/10 08:41:37;;;;;;;63.65;47.22;;;-3275.60;93.30;;;;;;5047264;28;20086;-76
2021/01/10 08:44:07;;;;;;;69.20;48.22;;;-3275.60;93.20;;;;;;5047599;28;20405;-75
2021/01/10 08:46:38;;;;;;;61.15;45.42;;;-3275.80;93.30;;;;;;5044246;28;20037;-75
2021/01/10 08:49:04;;;;;;;65.43;47.00;;;-3275.80;93.30;;;;;;5045533;28;20072;-75
2021/01/10 08:51:38;;;;;;;63.63;46.00;;;-3275.90;93.30;;;;;;5043650;28;21088;-76
2021/01/10 08:54:16;;;;;;;71.70;51.00;;;-3276.00;93.30;;;;;;5041167;28;20128;-69
2021/01/10 08:56:44;;;;;;;68.00;48.75;;;-3276.10;93.30;;;;;;5047901;28;20074;-72
2021/01/10 08:59:10;;;;;;;67.53;50.17;;;-3276.40;93.30;;;;;;5044839;28;20045;-70
2021/01/10 09:01:38;;;;;;;65.38;47.38;;;-3276.50;93.10;;;;;;5043706;28;20029;-69
2021/01/10 09:04:10;;;;;;;62.22;47.15;;;-3276.70;93.00;;;;;;5042461;28;20048;-67
2021/01/10 09:06:41;;;;;;;59.95;45.72;;;0.00;92.90;;;;;;5040103;28;20021;-71
2021/01/10 09:09:15;;;;;;;59.95;46.40;;;0.10;92.70;;;;;;5036151;28;20028;-74
2021/01/10 09:11:45;;;;;;;63.25;47.70;;;0.30;92.40;;;;;;5034954;28;20040;-70
2021/01/10 09:14:14;;;;;;;61.17;45.42;;;0.40;91.90;;;;;;5044980;28;20707;-70
2021/01/10 09:16:40;;;;;;;60.13;47.22;;;0.50;91.50;;;;;;5047481;28;20032;-70
2021/01/10 09:19:08;;;;;;;68.13;50.03;;;0.60;91.10;;;;;;5041760;28;20041;-70
2021/01/10 09:21:34;;;;;;;54.78;42.97;;;0.80;90.60;;;;;;5042885;28;20033;-73
2021/01/10 09:24:01;;;;;;;58.85;44.83;;;0.90;90.20;;;;;;5040622;28;20547;-71
2021/01/10 09:26:31;;;;;;;59.47;45.15;;;1.10;89.50;;;;;;5038528;28;20033;-70
2021/01/10 09:28:58;;;;;;;58.38;42.65;;;1.20;88.90;;;;;;5043072;28;20039;-70
2021/01/10 09:31:48;;;;;;;54.88;43.90;;;1.30;88.60;;;;;;5041505;28;20590;-71
2021/01/10 09:34:23;;;;;;;55.22;42.33;;;1.50;88.30;;;;;;5038372;28;20194;-68
2021/01/10 09:36:48;;;;;;;58.75;45.38;;;1.60;87.50;;;;;;5040525;28;20028;-72
2021/01/10 09:39:14;;;;;;;52.67;42.65;;;1.70;87.20;;;;;;5047755;28;20041;-71
2021/01/10 09:41:53;;;;;;;50.97;41.92;;;1.80;86.70;;;;;;5041757;28;20033;-71
2021/01/10 09:44:19;;;;;;;50.75;41.40;;;2.00;86.30;;;;;;5044285;28;20433;-72
2021/01/10 09:46:53;;;;;;;46.97;38.90;;;2.10;86.20;;;;;;5050584;28;20036;-70
2021/01/10 09:49:27;;;;;;;53.23;43.00;;;2.20;85.20;;;;;;5045421;28;20494;-70
2021/01/10 09:51:56;;;;;;;51.85;42.55;;;2.30;85.20;;;;;;5054569;28;20029;-71
2021/01/10 09:54:25;;;;;;;49.33;41.28;;;2.40;85.20;;;;;;5043895;28;20491;-69
2021/01/10 09:56:58;;;;;;;50.45;40.70;;;2.50;84.90;;;;;;5037590;28;20041;-69
2021/01/10 09:59:56;;;;;;;50.20;39.85;;;2.60;84.60;;;;;;5046522;28;20183;-69
2021/01/10 10:02:33;;;;;;;48.38;39.00;;;2.70;84.30;;;;;;5044424;28;20063;-72
2021/01/10 10:05:27;;;;;;;50.58;42.70;;;2.80;83.70;;;;;;5043340;28;20029;-71
2021/01/10 10:08:04;;;;;;;49.67;37.87;;;2.80;83.80;;;;;;5037071;28;20119;-72
2021/01/10 10:10:31;;;;;;;53.67;39.33;;;2.80;83.40;;;;;;5038366;28;20037;-71
2021/01/10 10:13:05;;;;;;;45.53;38.25;;;2.90;83.50;;;;;;5045762;28;20051;-72
2021/01/10 10:15:43;;;;;;;44.35;37.38;;;3.00;83.80;;;;;;5043877;28;20361;-72
2021/01/10 10:18:16;;;;;;;45.83;36.65;;;3.00;84.10;;;;;;5039084;28;20033;-73
2021/01/10 10:20:42;;;;;;;49.08;39.15;;;3.00;84.00;;;;;;5052947;28;20032;-72
2021/01/10 10:23:13;;;;;;;44.80;37.85;;;3.10;83.90;;;;;;5047103;28;20044;-70
2021/01/10 10:25:39;;;;;;;52.78;40.80;;;3.10;84.20;;;;;;5044402;28;20384;-70
2021/01/10 10:28:05;;;;;;;52.05;40.47;;;3.30;84.20;;;;;;5041909;28;20452;-71
2021/01/10 10:30:32;;;;;;;51.88;40.90;;;3.40;83.80;;;;;;5044574;28;20025;-70
2021/01/10 10:32:58;;;;;;;47.88;37.88;;;3.40;83.80;;;;;;5045723;28;20518;-71
2021/01/10 10:35:24;;;;;;;50.05;38.53;;;3.50;83.80;;;;;;5048108;28;20029;-73
2021/01/10 10:37:51;;;;;;;51.72;37.92;;;3.60;82.90;;;;;;5042912;28;20388;-70
2021/01/10 10:40:17;;;;;;;47.22;36.90;;;3.70;83.40;;;;;;5036820;28;20068;-73
2021/01/10 10:42:43;;;;;;;51.25;40.03;;;3.80;82.90;;;;;;5042970;28;20086;-69
2021/01/10 10:45:09;;;;;;;58.45;43.35;;;3.90;82.90;;;;;;5040312;28;20037;-69
2021/01/10 10:47:35;;;;;;;67.00;48.60;;;4.00;82.20;;;;;;5041664;28;20037;-74
2021/01/10 10:50:00;;;;;;;54.45;41.47;;;4.00;81.80;;;;;;5041153;28;20036;-71
2021/01/10 10:52:26;;;;;;;52.08;39.78;;;4.10;82.10;;;;;;5040622;28;20025;-70
2021/01/10 10:54:52;;;;;;;42.70;36.53;;;4.20;82.00;;;;;;5040273;28;20094;-70
2021/01/10 10:57:17;;;;;;;42.83;36.53;;;4.20;81.60;;;;;;5037094;28;20455;-70
2021/01/10 10:59:43;;;;;;;39.67;33.97;;;4.30;82.30;;;;;;5041028;28;20527;-72
2021/01/10 11:02:09;;;;;;;42.72;33.72;;;4.50;82.20;;;;;;5040238;28;20037;-70
2021/01/10 11:04:38;;;;;;;42.85;35.55;;;4.50;81.20;;;;;;5044706;28;20044;-72
2021/01/10 11:07:04;;;;;;;43.38;35.05;;;4.60;81.90;;;;;;5040768;28;20302;-74
2021/01/10 11:09:31;;;;;;;41.67;35.58;;;4.70;81.30;;;;;;5041919;28;20476;-71
2021/01/10 11:11:57;;;;;;;47.28;36.03;;;4.70;80.50;;;;;;5035615;28;20021;-71
2021/01/10 11:14:23;;;;;;;41.78;32.72;;;4.60;80.40;;;;;;5042186;28;20479;-72
2021/01/10 11:16:50;;;;;;;44.35;33.00;;;4.40;81.80;;;;;;5043454;28;20514;-71
2021/01/10 11:19:16;;;;;;;44.22;34.20;;;4.20;82.40;;;;;;5049109;28;20051;-70
2021/01/10 11:21:45;;;;;;;43.83;35.63;;;3.90;83.10;;;;;;5047996;28;20383;-72
2021/01/10 11:24:12;;;;;;;45.38;35.33;;;3.80;84.20;;;;;;5044050;28;20026;-70
2021/01/10 11:26:47;;;;;;;48.42;37.75;;;3.90;84.20;;;;;;5046342;28;20033;-73
2021/01/10 11:29:14;;;;;;;49.10;38.45;;;4.00;84.30;;;;;;5048254;28;20033;-72
2021/01/10 11:31:41;;;;;;;46.85;38.83;;;4.00;84.00;;;;;;5044490;28;20075;-70
2021/01/10 11:34:13;;;;;;;42.88;36.33;;;3.90;84.80;;;;;;5035791;28;20028;-72
2021/01/10 11:36:45;;;;;;;41.50;35.17;;;3.80;85.30;;;;;;5038506;28;20741;-74
2021/01/10 11:39:11;;;;;;;43.42;33.85;;;3.80;85.80;;;;;;5047091;28;20082;-74
2021/01/10 11:41:48;;;;;;;41.60;33.15;;;3.90;86.20;;;;;;5040250;28;20504;-70
2021/01/10 11:44:14;;;;;;;41.15;34.00;;;4.10;85.50;;;;;;5038319;28;20045;-73
2021/01/10 11:46:41;;;;;;;43.72;32.63;;;4.20;85.40;;;;;;5043737;28;20384;-71
2021/01/10 11:49:08;;;;;;;38.13;31.52;;;4.10;85.20;;;;;;5045543;28;20670;-70
2021/01/10 11:51:33;;;;;;;35.83;29.08;;;4.10;85.80;;;;;;5046620;28;20029;-70
2021/01/10 11:53:59;;;;;;;37.65;30.00;;;4.10;85.60;;;;;;5049568;28;20818;-71
2021/01/10 11:56:24;;;;;;;36.28;30.15;;;4.00;85.90;;;;;;5047925;28;20040;-70
2021/01/10 11:58:50;;;;;;;39.45;30.15;;;4.10;86.60;;;;;;5050977;28;20504;-73
2021/01/10 12:01:15;;;;;;;32.33;28.35;;;4.20;86.10;;;;;;5046129;28;20040;-71
2021/01/10 12:03:43;;;;;;;32.15;26.38;;;4.40;86.00;;;;;;5038659;28;20165;-71
2021/01/10 12:06:09;;;;;;;33.70;26.58;;;4.60;85.20;;;;;;5050367;28;20387;-71
2021/01/10 12:08:35;;;;;;;35.10;26.70;;;4.60;85.10;;;;;;5051016;28;20033;-70
2021/01/10 12:11:00;;;;;;;37.88;27.90;;;4.60;84.30;;;;;;5046291;28;20085;-71
2021/01/10 12:13:26;;;;;;;39.13;29.05;;;4.50;85.20;;;;;;5044039;28;20041;-71
2021/01/10 12:15:52;;;;;;;39.70;29.30;;;4.60;85.40;;;;;;5043602;28;20068;-74
2021/01/10 12:18:18;;;;;;;38.38;27.52;;;4.50;85.30;;;;;;5044667;28;20554;-69
2021/01/10 12:20:44;;;;;;;38.72;28.30;;;4.50;85.80;;;;;;5039964;28;20064;-69